createdAt,value
2019-03-28T00:02:30.338Z,100562.17
2019-03-28T00:05:44.326Z,100561.69
2019-03-28T00:08:58.612Z,100560.75
2019-03-28T00:12:12.743Z,100557.80
2019-03-28T00:15:26.977Z,100559.06
2019-03-28T00:18:42.904Z,100554.19
2019-03-28T00:21:57.056Z,100554.12
2019-03-28T00:25:12.088Z,100550.05
2019-03-28T00:28:26.084Z,100548.66
2019-03-28T00:31:40.148Z,100554.84
2019-03-28T00:34:54.176Z,100547.58
2019-03-28T00:38:08.172Z,100555.81
2019-03-28T00:41:22.443Z,100552.70
2019-03-28T00:44:36.439Z,100558.13
2019-03-28T00:47:50.461Z,100553.69
2019-03-28T00:51:04.580Z,100545.66
2019-03-28T00:54:18.603Z,100548.73
2019-03-28T00:57:32.806Z,100543.91
2019-03-28T01:00:46.829Z,100552.05
2019-03-28T01:04:00.920Z,100547.80
2019-03-28T01:07:16.844Z,100543.89
2019-03-28T01:10:30.952Z,100538.84
2019-03-28T01:13:45.076Z,100540.86
2019-03-28T01:16:59.080Z,100537.49
2019-03-28T01:20:13.384Z,100538.63
2019-03-28T01:23:27.513Z,100542.00
2019-03-28T01:26:41.512Z,100540.73
2019-03-28T01:29:55.520Z,100547.66
2019-03-28T01:33:09.829Z,100538.45
2019-03-28T01:36:23.925Z,100543.58
2019-03-28T01:39:38.026Z,100535.87
2019-03-28T01:42:52.063Z,100534.97
2019-03-28T01:46:06.051Z,100536.94
2019-03-28T01:49:20.061Z,100538.84
2019-03-28T01:52:34.066Z,100539.55
2019-03-28T01:55:48.064Z,100528.86
2019-03-28T01:59:02.199Z,100522.66
2019-03-28T02:02:16.203Z,100529.70
2019-03-28T02:05:30.189Z,100526.16
2019-03-28T02:08:44.525Z,100523.38
2019-03-28T02:11:58.794Z,100527.72
2019-03-28T02:15:13.327Z,100528.98
2019-03-28T02:18:27.814Z,100520.30
2019-03-28T02:21:41.807Z,100525.78
2019-03-28T02:24:56.079Z,100519.46
2019-03-28T02:28:10.111Z,100521.11
2019-03-28T02:31:24.114Z,100517.19
2019-03-28T02:34:38.108Z,100519.72
2019-03-28T02:37:52.512Z,100516.61
2019-03-28T02:41:06.652Z,100515.58
2019-03-28T02:44:21.039Z,100514.48
2019-03-28T02:47:35.931Z,100516.28
2019-03-28T02:50:50.435Z,100517.06
2019-03-28T02:54:05.512Z,100518.45
2019-03-28T02:57:19.643Z,100515.45
2019-03-28T03:00:33.951Z,100524.48
2019-03-28T03:03:47.972Z,100522.85
2019-03-28T03:07:01.982Z,100516.53
2019-03-28T03:10:15.999Z,100518.77
2019-03-28T03:13:30.604Z,100526.05
2019-03-28T03:16:44.722Z,100527.38
2019-03-28T03:19:58.854Z,100527.14
2019-03-28T03:23:13.088Z,100524.73
2019-03-28T03:26:27.393Z,100524.06
2019-03-28T03:29:41.434Z,100527.78
2019-03-28T03:32:55.694Z,100525.62
2019-03-28T03:36:09.868Z,100531.65
2019-03-28T03:39:24.268Z,100538.14
2019-03-28T03:42:38.643Z,100538.63
2019-03-28T03:45:52.615Z,100544.14
2019-03-28T03:49:06.733Z,100539.77
2019-03-28T03:52:20.742Z,100544.46
2019-03-28T03:55:34.760Z,100544.92
2019-03-28T03:58:48.772Z,100548.78
2019-03-28T04:02:03.264Z,100547.98
2019-03-28T04:05:17.281Z,100548.66
2019-03-28T04:08:31.564Z,100544.80
2019-03-28T04:11:45.595Z,100552.02
2019-03-28T04:14:59.632Z,100560.85
2019-03-28T04:18:13.920Z,100558.25
2019-03-28T04:21:28.166Z,100565.48
2019-03-28T04:24:42.254Z,100557.55
2019-03-28T04:27:56.357Z,100559.71
2019-03-28T04:31:10.671Z,100559.04
2019-03-28T04:34:24.691Z,100554.91
2019-03-28T04:37:38.813Z,100563.66
2019-03-28T04:40:52.948Z,100567.80
2019-03-28T04:44:07.010Z,100567.92
2019-03-28T04:47:21.126Z,100576.64
2019-03-28T04:50:35.146Z,100572.30
2019-03-28T04:53:49.164Z,100574.91
2019-03-28T04:57:04.205Z,100576.17
2019-03-28T05:00:18.722Z,100578.02
2019-03-28T05:03:33.081Z,100579.52
2019-03-28T05:06:47.479Z,100573.77
2019-03-28T05:10:01.707Z,100573.92
2019-03-28T05:13:15.722Z,100586.46
2019-03-28T05:16:29.745Z,100586.19
2019-03-28T05:19:43.872Z,100582.41
2019-03-28T05:22:57.882Z,100589.42
2019-03-28T05:26:12.003Z,100580.67
2019-03-28T05:29:26.631Z,100587.80
2019-03-28T05:32:41.333Z,100585.83
2019-03-28T05:35:55.611Z,100588.12
2019-03-28T05:39:09.730Z,100589.69
2019-03-28T05:42:23.775Z,100594.86
2019-03-28T05:45:37.807Z,100599.98
2019-03-28T05:48:51.971Z,100601.88
2019-03-28T05:52:06.382Z,100598.44
2019-03-28T05:55:20.506Z,100609.92
2019-03-28T05:58:34.649Z,100609.41
2019-03-28T06:01:48.981Z,100617.73
2019-03-28T06:05:03.535Z,100615.91
2019-03-28T06:08:17.860Z,100607.97
2019-03-28T06:11:32.199Z,100610.96
2019-03-28T06:14:46.211Z,100613.54
2019-03-28T06:18:00.349Z,100615.27
2019-03-28T06:21:14.358Z,100616.45
2019-03-28T06:24:28.675Z,100613.28
2019-03-28T06:27:43.131Z,100616.04
2019-03-28T06:30:57.460Z,100613.41
2019-03-28T06:34:12.274Z,100616.45
2019-03-28T06:37:26.321Z,100623.20
2019-03-28T06:40:40.459Z,100623.03
2019-03-28T06:43:54.609Z,100618.61
2019-03-28T06:47:09.113Z,100624.64
2019-03-28T06:50:23.144Z,100618.95
2019-03-28T06:53:38.306Z,100626.50
2019-03-28T06:56:52.636Z,100616.53
2019-03-28T07:00:07.867Z,100625.76
2019-03-28T07:03:22.115Z,100623.73
2019-03-28T07:06:36.699Z,100620.62
2019-03-28T07:09:51.123Z,100624.42
2019-03-28T07:13:06.027Z,100621.03
2019-03-28T07:16:21.229Z,100621.16
2019-03-28T07:19:35.724Z,100621.98
2019-03-28T07:22:50.050Z,100614.27
2019-03-28T07:26:04.191Z,100615.33
2019-03-28T07:29:18.801Z,100613.16
2019-03-28T07:32:32.841Z,100613.98
2019-03-28T07:35:47.195Z,100610.59
2019-03-28T07:39:01.359Z,100606.55
2019-03-28T07:42:15.366Z,100605.08
2019-03-28T07:45:29.866Z,100594.45
2019-03-28T07:48:43.988Z,100592.34
2019-03-28T07:51:58.116Z,100591.73
2019-03-28T07:55:12.360Z,100587.46
2019-03-28T07:58:26.514Z,100584.17
2019-03-28T08:01:41.133Z,100572.70
2019-03-28T08:04:55.239Z,100572.80
2019-03-28T08:08:09.274Z,100567.57
2019-03-28T08:11:24.290Z,100568.70
2019-03-28T08:14:38.915Z,100561.39
2019-03-28T08:17:53.121Z,100561.86
2019-03-28T08:21:07.524Z,100562.72
2019-03-28T08:24:21.550Z,100560.25
2019-03-28T08:27:35.795Z,100566.15
2019-03-28T08:30:49.969Z,100564.58
2019-03-28T08:34:04.536Z,100563.76
2019-03-28T08:37:18.697Z,100558.75
2019-03-28T08:40:34.985Z,100559.98
2019-03-28T08:43:49.234Z,100558.89
2019-03-28T08:47:06.088Z,100546.84
2019-03-28T08:50:19.525Z,100556.70
2019-03-28T08:53:34.016Z,100552.75
2019-03-28T08:56:48.030Z,100551.97
2019-03-28T09:00:02.645Z,100553.41
2019-03-28T09:03:16.787Z,100546.59
2019-03-28T09:06:31.089Z,100540.05
2019-03-28T09:09:45.423Z,100541.22
2019-03-28T09:12:59.443Z,100533.69
2019-03-28T09:16:13.652Z,100528.31
2019-03-28T09:19:27.706Z,100537.72
2019-03-28T09:22:41.725Z,100537.94
2019-03-28T09:25:55.928Z,100529.88
2019-03-28T09:29:10.388Z,100536.38
2019-03-28T09:32:24.919Z,100540.41
2019-03-28T09:35:39.735Z,100531.77
2019-03-28T09:38:54.270Z,100529.63
2019-03-28T09:42:08.543Z,100533.50
2019-03-28T09:45:23.577Z,100525.59
2019-03-28T09:48:37.609Z,100530.44
2019-03-28T09:51:51.692Z,100525.48
2019-03-28T09:55:27.030Z,100529.48
2019-03-28T09:58:41.486Z,100526.98
2019-03-28T10:01:55.790Z,100523.98
2019-03-28T10:05:10.106Z,100526.11
2019-03-28T10:08:24.147Z,100521.97
2019-03-28T10:11:38.807Z,100523.62
2019-03-28T10:14:53.435Z,100512.14
2019-03-28T10:18:08.491Z,100509.25
2019-03-28T10:21:22.653Z,100509.40
2019-03-28T10:24:36.694Z,100510.95
2019-03-28T10:27:51.145Z,100509.67
2019-03-28T10:31:15.898Z,100512.05
2019-03-28T10:34:21.750Z,100520.06
2019-03-28T10:37:36.323Z,100515.28
2019-03-28T10:40:50.410Z,100515.22
2019-03-28T10:44:04.933Z,100513.30
2019-03-28T10:47:19.880Z,100517.94
2019-03-28T10:50:41.480Z,100518.22
2019-03-28T10:53:50.502Z,100525.20
2019-03-28T10:57:13.518Z,100505.73
2019-03-28T11:00:24.372Z,100525.96
2019-03-28T11:03:38.015Z,100525.37
2019-03-28T11:06:52.408Z,100520.53
2019-03-28T11:10:07.250Z,100524.66
2019-03-28T11:13:21.523Z,100508.09
2019-03-28T11:16:35.668Z,100511.02
2019-03-28T11:19:50.106Z,100514.78
2019-03-28T11:23:04.691Z,100511.11
2019-03-28T11:26:18.769Z,100505.83
2019-03-28T11:29:33.841Z,100510.49
2019-03-28T11:32:48.431Z,100502.95
2019-03-28T11:36:03.098Z,100496.77
2019-03-28T11:39:18.156Z,100500.53
2019-03-28T11:42:32.634Z,100491.96
2019-03-28T11:45:46.931Z,100502.43
2019-03-28T11:49:00.964Z,100497.60
2019-03-28T11:52:15.233Z,100495.00
2019-03-28T11:55:29.383Z,100489.97
2019-03-28T11:58:44.047Z,100481.31
2019-03-28T12:02:00.506Z,100473.46
2019-03-28T12:05:14.711Z,100484.45
2019-03-28T12:08:29.542Z,100478.90
2019-03-28T12:11:43.709Z,100476.95
2019-03-28T12:14:58.184Z,100471.52
2019-03-28T12:18:13.373Z,100458.10
2019-03-28T12:21:29.050Z,100451.05
2019-03-28T12:24:43.432Z,100446.66
2019-03-28T12:28:00.276Z,100447.16
2019-03-28T12:31:14.083Z,100440.84
2019-03-28T12:34:28.698Z,100437.68
2019-03-28T12:37:43.202Z,100432.73
2019-03-28T12:40:57.489Z,100435.23
2019-03-28T12:44:11.767Z,100426.27
2019-03-28T12:47:25.997Z,100428.61
2019-03-28T12:50:40.165Z,100429.77
2019-03-28T12:53:54.626Z,100416.77
2019-03-28T12:57:08.849Z,100426.15
2019-03-28T13:00:36.484Z,100416.45
2019-03-28T13:03:50.816Z,100430.86
2019-03-28T13:07:05.095Z,100420.48
2019-03-28T13:10:19.662Z,100439.70
2019-03-28T13:13:33.975Z,100448.09
2019-03-28T13:16:48.193Z,100444.20
2019-03-28T13:20:02.754Z,100430.41
2019-03-28T13:23:16.929Z,100423.13
2019-03-28T13:26:31.260Z,100416.98
2019-03-28T13:29:45.443Z,100420.36
2019-03-28T13:33:00.861Z,100416.28
2019-03-28T13:36:15.291Z,100415.77
2019-03-28T13:39:29.663Z,100410.88
2019-03-28T13:42:44.113Z,100414.45
2019-03-28T13:45:58.282Z,100416.41
2019-03-28T13:49:12.539Z,100412.56
2019-03-28T13:52:26.996Z,100403.72
2019-03-28T13:55:41.152Z,100399.28
2019-03-28T13:58:56.210Z,100393.80
2019-03-28T14:02:10.656Z,100394.91
2019-03-28T14:05:25.398Z,100400.00
2019-03-28T14:08:39.989Z,100403.89
2019-03-28T14:11:54.422Z,100395.55
2019-03-28T14:15:09.013Z,100378.90
2019-03-28T14:18:23.772Z,100374.02
2019-03-28T14:21:38.203Z,100374.77
2019-03-28T14:24:52.569Z,100374.70
2019-03-28T14:28:06.758Z,100367.83
2019-03-28T14:31:21.235Z,100366.80
2019-03-28T14:34:35.549Z,100376.30
2019-03-28T14:37:50.548Z,100371.19
2019-03-28T14:41:04.713Z,100373.06
2019-03-28T14:44:19.093Z,100374.08
2019-03-28T14:47:33.503Z,100377.01
2019-03-28T14:50:47.579Z,100365.77
2019-03-28T14:54:01.757Z,100354.01
2019-03-28T14:57:16.740Z,100358.05
2019-03-28T15:00:48.397Z,100346.41
2019-03-28T15:04:02.910Z,100354.40
2019-03-28T15:07:16.938Z,100364.00
2019-03-28T15:10:31.192Z,100371.16
2019-03-28T15:13:45.718Z,100362.03
2019-03-28T15:16:59.862Z,100368.63
2019-03-28T15:20:14.100Z,100372.21
2019-03-28T15:23:28.260Z,100367.00
2019-03-28T15:26:42.621Z,100371.75
2019-03-28T15:29:57.276Z,100360.30
2019-03-28T15:33:11.838Z,100352.13
2019-03-28T15:36:27.349Z,100348.64
2019-03-28T15:39:41.547Z,100346.98
2019-03-28T15:42:55.930Z,100344.30
2019-03-28T15:46:10.576Z,100342.11
2019-03-28T15:49:25.671Z,100343.10
2019-03-28T15:52:39.808Z,100356.64
2019-03-28T15:55:54.232Z,100348.31
2019-03-28T15:59:08.768Z,100352.59
2019-03-28T16:02:22.920Z,100346.02
2019-03-28T16:05:37.673Z,100345.87
2019-03-28T16:08:53.566Z,100338.68
2019-03-28T16:12:07.887Z,100347.98
2019-03-28T16:15:22.671Z,100333.52
2019-03-28T16:18:36.714Z,100336.48
2019-03-28T16:21:51.289Z,100337.36
2019-03-28T16:25:05.948Z,100336.76
2019-03-28T16:28:20.092Z,100339.73
2019-03-28T16:31:34.411Z,100334.66
2019-03-28T16:34:48.566Z,100341.31
2019-03-28T16:38:03.387Z,100337.34
2019-03-28T16:41:17.875Z,100343.62
2019-03-28T16:44:31.938Z,100341.30
2019-03-28T16:47:46.080Z,100338.30
2019-03-28T16:51:00.304Z,100350.22
2019-03-28T16:54:15.156Z,100346.19
2019-03-28T16:57:29.534Z,100338.02
2019-03-28T17:00:44.108Z,100343.01
2019-03-28T17:03:58.151Z,100344.72
2019-03-28T17:07:13.515Z,100345.95
2019-03-28T17:10:46.249Z,100355.94
2019-03-28T17:14:00.665Z,100357.05
2019-03-28T17:17:14.711Z,100359.34
2019-03-28T17:20:28.885Z,100365.79
2019-03-28T17:23:43.445Z,100366.88
2019-03-28T17:26:57.621Z,100367.38
2019-03-28T17:30:12.275Z,100365.38
2019-03-28T17:33:26.267Z,100371.18
2019-03-28T17:36:40.281Z,100373.06
2019-03-28T17:39:54.292Z,100373.46
2019-03-28T17:43:08.462Z,100376.44
2019-03-28T17:46:22.479Z,100382.50
2019-03-28T17:49:36.571Z,100380.50
2019-03-28T17:52:50.707Z,100378.12
2019-03-28T17:56:04.931Z,100379.50
2019-03-28T17:59:19.060Z,100380.38
2019-03-28T18:02:33.768Z,100381.09
2019-03-28T18:05:58.043Z,100378.34
2019-03-28T18:09:06.382Z,100377.85
2019-03-28T18:12:21.424Z,100385.00
2019-03-28T18:15:35.940Z,100387.84
2019-03-28T18:18:50.073Z,100393.02
2019-03-28T18:22:04.328Z,100396.94
2019-03-28T18:25:18.568Z,100393.23
2019-03-28T18:28:32.730Z,100398.97
2019-03-28T18:31:50.839Z,100408.48
2019-03-28T18:35:05.612Z,100410.61
2019-03-28T18:38:19.616Z,100418.22
2019-03-28T18:41:34.183Z,100422.27
2019-03-28T18:44:48.555Z,100425.23
2019-03-28T18:48:02.813Z,100430.97
2019-03-28T18:51:16.867Z,100431.72
2019-03-28T18:54:31.090Z,100431.71
2019-03-28T18:57:45.347Z,100435.98
2019-03-28T19:00:59.816Z,100434.33
2019-03-28T19:04:14.172Z,100437.15
2019-03-28T19:07:28.672Z,100440.96
2019-03-28T19:10:42.992Z,100439.70
2019-03-28T19:13:57.045Z,100445.80
2019-03-28T19:17:11.186Z,100446.89
2019-03-28T19:20:25.631Z,100447.65
2019-03-28T19:23:39.667Z,100456.03
2019-03-28T19:26:53.693Z,100459.27
2019-03-28T19:30:08.984Z,100456.52
2019-03-28T19:33:23.021Z,100454.30
2019-03-28T19:36:37.599Z,100462.02
2019-03-28T19:39:51.759Z,100462.70
2019-03-28T19:43:19.221Z,100456.75
2019-03-28T19:46:22.465Z,100455.42
2019-03-28T19:49:36.676Z,100457.69
2019-03-28T19:52:51.694Z,100448.81
2019-03-28T19:56:05.741Z,100452.70
2019-03-28T19:59:19.884Z,100456.38
2019-03-28T20:02:34.053Z,100455.16
2019-03-28T20:05:49.362Z,100448.94
2019-03-28T20:09:16.074Z,100446.41
2019-03-28T20:12:21.887Z,100452.06
2019-03-28T20:15:36.153Z,100451.72
2019-03-28T20:18:50.316Z,100445.33
2019-03-28T20:22:04.660Z,100441.09
2019-03-28T20:25:19.503Z,100443.36
2019-03-28T20:28:33.771Z,100446.70
2019-03-28T20:31:48.094Z,100444.95
2019-03-28T20:35:02.548Z,100441.75
2019-03-28T20:38:16.569Z,100446.17
2019-03-28T20:41:30.582Z,100445.36
2019-03-28T20:44:45.050Z,100451.39
2019-03-28T20:47:59.359Z,100448.69
2019-03-28T20:51:13.373Z,100451.82
2019-03-28T20:54:27.776Z,100449.31
2019-03-28T20:57:42.013Z,100455.36
2019-03-28T21:00:56.435Z,100455.44
2019-03-28T21:04:10.547Z,100452.05
2019-03-28T21:07:25.144Z,100451.55
2019-03-28T21:10:39.555Z,100453.06
2019-03-28T21:13:53.929Z,100458.22
2019-03-28T21:17:08.118Z,100458.59
2019-03-28T21:20:22.516Z,100456.41
2019-03-28T21:23:36.531Z,100456.80
2019-03-28T21:26:50.656Z,100452.42
2019-03-28T21:30:05.622Z,100460.45
2019-03-28T21:33:19.643Z,100449.70
2019-03-28T21:36:33.995Z,100456.25
2019-03-28T21:39:48.256Z,100454.27
2019-03-28T21:43:02.397Z,100456.98
2019-03-28T21:46:16.517Z,100450.42
2019-03-28T21:49:30.636Z,100450.61
2019-03-28T21:52:44.772Z,100442.95
2019-03-28T21:55:59.118Z,100444.03
2019-03-28T21:59:13.508Z,100448.41
2019-03-28T22:02:27.629Z,100450.73
2019-03-28T22:05:41.748Z,100441.44
2019-03-28T22:08:55.772Z,100444.53
2019-03-28T22:12:09.945Z,100435.95
2019-03-28T22:15:23.938Z,100442.33
2019-03-28T22:18:37.955Z,100438.31
2019-03-28T22:21:51.992Z,100435.76
2019-03-28T22:25:06.629Z,100435.91
2019-03-28T22:28:21.098Z,100440.98
2019-03-28T22:31:35.236Z,100442.61
2019-03-28T22:34:49.596Z,100433.49
2019-03-28T22:38:03.822Z,100434.41
2019-03-28T22:41:17.824Z,100430.19
2019-03-28T22:44:33.853Z,100428.02
2019-03-28T22:47:48.273Z,100425.39
2019-03-28T22:51:02.668Z,100434.98
2019-03-28T22:54:16.684Z,100433.87
2019-03-28T22:57:30.736Z,100430.19
2019-03-28T23:00:46.691Z,100437.25
2019-03-28T23:04:00.723Z,100435.24
2019-03-28T23:07:14.847Z,100437.21
2019-03-28T23:10:28.966Z,100432.86
2019-03-28T23:13:42.991Z,100432.62
2019-03-28T23:16:57.191Z,100430.28
2019-03-28T23:20:11.821Z,100436.43
2019-03-28T23:23:26.189Z,100438.97
2019-03-28T23:26:40.355Z,100436.93
2019-03-28T23:29:54.372Z,100437.58
2019-03-28T23:33:08.846Z,100439.79
2019-03-28T23:36:22.844Z,100441.34
2019-03-28T23:39:37.727Z,100441.34
2019-03-28T23:42:52.210Z,100445.15
2019-03-28T23:46:06.515Z,100440.19
2019-03-28T23:49:20.640Z,100446.33
2019-03-28T23:52:34.784Z,100448.76
2019-03-28T23:55:48.784Z,100446.75
2019-03-28T23:59:03.052Z,100448.02
